Sunrise, Wyoming
Current Conditions -  °F | °C
As of 5:15 PM on Tuesday 25 Nov 2014 (Local Time) from KGUR Reporting Station
Light Snow Light Snow  
Wind Chill: 30°   Ceiling: 1400
Heat Index: 39°   Visibility: 3mi
Dew Point: 37°   Wind: 17mph
Humidity: 89%   Direction: 330°NNW
Pressure: 29.96"   Gusts: 23mph
Location:  42.3847°N, 104.796°W
Report Text: KGUR 260015Z AUTO 33015G20KT 3SM -SN BKN014 OVC021 04/03 A2996 RMK AO2 T00410025
Loading
Personal Weather Stations






























Interactive Weather Map New forecast layout! Learn more

10-Day Weather Forecast

Advertisements
Track Severe Weather on mobile